sensor_id;sensor_type;location;lat;lon;timestamp;P1;durP1;ratioP1;P2;durP2;ratioP2
84135;SDS011;74238;50.566;7.262;2023-11-21T00:01:25;5.38;;;2.03;;
84135;SDS011;74238;50.566;7.262;2023-11-21T00:03:51;4.18;;;2.13;;
84135;SDS011;74238;50.566;7.262;2023-11-21T00:06:17;8.13;;;2.17;;
84135;SDS011;74238;50.566;7.262;2023-11-21T00:08:43;6.32;;;2.17;;
84135;SDS011;74238;50.566;7.262;2023-11-21T00:11:08;5.13;;;2.47;;
84135;SDS011;74238;50.566;7.262;2023-11-21T00:13:33;7.15;;;2.30;;
84135;SDS011;74238;50.566;7.262;2023-11-21T00:15:58;5.40;;;2.33;;
84135;SDS011;74238;50.566;7.262;2023-11-21T00:18:24;5.53;;;1.90;;
84135;SDS011;74238;50.566;7.262;2023-11-21T00:20:49;5.85;;;2.30;;
84135;SDS011;74238;50.566;7.262;2023-11-21T00:23:14;5.50;;;2.15;;
84135;SDS011;74238;50.566;7.262;2023-11-21T00:25:40;6.60;;;2.25;;
84135;SDS011;74238;50.566;7.262;2023-11-21T00:28:05;4.65;;;1.77;;
84135;SDS011;74238;50.566;7.262;2023-11-21T00:30:30;4.85;;;2.10;;
84135;SDS011;74238;50.566;7.262;2023-11-21T00:32:56;4.78;;;1.92;;
84135;SDS011;74238;50.566;7.262;2023-11-21T00:35:22;4.35;;;2.00;;
84135;SDS011;74238;50.566;7.262;2023-11-21T00:37:47;4.18;;;1.80;;
84135;SDS011;74238;50.566;7.262;2023-11-21T00:40:14;5.30;;;2.25;;
84135;SDS011;74238;50.566;7.262;2023-11-21T00:42:40;3.17;;;1.70;;
84135;SDS011;74238;50.566;7.262;2023-11-21T00:45:06;5.03;;;1.90;;
84135;SDS011;74238;50.566;7.262;2023-11-21T00:47:32;5.50;;;1.65;;
84135;SDS011;74238;50.566;7.262;2023-11-21T00:49:57;7.03;;;2.63;;
84135;SDS011;74238;50.566;7.262;2023-11-21T00:52:23;6.32;;;1.90;;
84135;SDS011;74238;50.566;7.262;2023-11-21T00:54:48;4.80;;;1.83;;
84135;SDS011;74238;50.566;7.262;2023-11-21T00:57:14;4.90;;;1.98;;
84135;SDS011;74238;50.566;7.262;2023-11-21T00:59:39;4.28;;;1.80;;
84135;SDS011;74238;50.566;7.262;2023-11-21T01:02:05;4.85;;;1.85;;
84135;SDS011;74238;50.566;7.262;2023-11-21T01:04:30;3.50;;;1.80;;
84135;SDS011;74238;50.566;7.262;2023-11-21T01:06:57;4.30;;;1.83;;
84135;SDS011;74238;50.566;7.262;2023-11-21T01:09:22;5.65;;;2.10;;
84135;SDS011;74238;50.566;7.262;2023-11-21T01:11:49;4.03;;;1.98;;
84135;SDS011;74238;50.566;7.262;2023-11-21T01:14:14;4.03;;;1.85;;
84135;SDS011;74238;50.566;7.262;2023-11-21T01:16:39;3.67;;;1.60;;
84135;SDS011;74238;50.566;7.262;2023-11-21T01:19:05;4.55;;;2.00;;
84135;SDS011;74238;50.566;7.262;2023-11-21T01:21:30;4.60;;;1.50;;
84135;SDS011;74238;50.566;7.262;2023-11-21T01:23:56;7.00;;;2.25;;
84135;SDS011;74238;50.566;7.262;2023-11-21T01:26:21;4.05;;;1.90;;
84135;SDS011;74238;50.566;7.262;2023-11-21T01:28:47;5.95;;;1.83;;
84135;SDS011;74238;50.566;7.262;2023-11-21T01:31:14;4.38;;;2.08;;
84135;SDS011;74238;50.566;7.262;2023-11-21T01:33:40;4.85;;;2.20;;
84135;SDS011;74238;50.566;7.262;2023-11-21T01:36:05;4.75;;;1.83;;
84135;SDS011;74238;50.566;7.262;2023-11-21T01:38:31;4.78;;;2.10;;
84135;SDS011;74238;50.566;7.262;2023-11-21T01:40:57;4.13;;;1.83;;
84135;SDS011;74238;50.566;7.262;2023-11-21T01:43:22;3.88;;;1.90;;
84135;SDS011;74238;50.566;7.262;2023-11-21T01:45:48;3.58;;;1.80;;
84135;SDS011;74238;50.566;7.262;2023-11-21T01:48:13;5.68;;;1.98;;
84135;SDS011;74238;50.566;7.262;2023-11-21T01:50:39;5.15;;;1.70;;
84135;SDS011;74238;50.566;7.262;2023-11-21T01:53:05;4.45;;;1.70;;
84135;SDS011;74238;50.566;7.262;2023-11-21T01:55:31;3.90;;;1.65;;
84135;SDS011;74238;50.566;7.262;2023-11-21T01:57:59;5.18;;;2.88;;
84135;SDS011;74238;50.566;7.262;2023-11-21T02:00:25;5.38;;;1.52;;
84135;SDS011;74238;50.566;7.262;2023-11-21T02:02:53;4.15;;;1.65;;
84135;SDS011;74238;50.566;7.262;2023-11-21T02:05:19;3.97;;;1.45;;
84135;SDS011;74238;50.566;7.262;2023-11-21T02:07:47;3.72;;;1.60;;
84135;SDS011;74238;50.566;7.262;2023-11-21T02:10:17;3.53;;;1.75;;
84135;SDS011;74238;50.566;7.262;2023-11-21T02:12:47;5.90;;;1.92;;
84135;SDS011;74238;50.566;7.262;2023-11-21T02:15:16;7.72;;;1.77;;
84135;SDS011;74238;50.566;7.262;2023-11-21T02:17:45;3.42;;;1.80;;
84135;SDS011;74238;50.566;7.262;2023-11-21T02:20:12;4.32;;;1.92;;
84135;SDS011;74238;50.566;7.262;2023-11-21T02:22:43;4.53;;;2.00;;
84135;SDS011;74238;50.566;7.262;2023-11-21T02:25:10;4.60;;;2.00;;
84135;SDS011;74238;50.566;7.262;2023-11-21T02:27:36;4.10;;;1.92;;
84135;SDS011;74238;50.566;7.262;2023-11-21T02:30:02;3.38;;;1.80;;
84135;SDS011;74238;50.566;7.262;2023-11-21T02:32:29;5.22;;;1.63;;
84135;SDS011;74238;50.566;7.262;2023-11-21T02:34:56;2.55;;;1.45;;
84135;SDS011;74238;50.566;7.262;2023-11-21T02:37:25;4.50;;;1.50;;
84135;SDS011;74238;50.566;7.262;2023-11-21T02:39:51;3.17;;;1.40;;
84135;SDS011;74238;50.566;7.262;2023-11-21T02:42:16;3.78;;;1.77;;
84135;SDS011;74238;50.566;7.262;2023-11-21T02:44:41;3.40;;;1.70;;
84135;SDS011;74238;50.566;7.262;2023-11-21T02:47:07;2.65;;;1.50;;
84135;SDS011;74238;50.566;7.262;2023-11-21T02:49:35;4.70;;;1.60;;
84135;SDS011;74238;50.566;7.262;2023-11-21T02:52:00;3.80;;;1.73;;
84135;SDS011;74238;50.566;7.262;2023-11-21T02:54:26;3.47;;;1.90;;
84135;SDS011;74238;50.566;7.262;2023-11-21T02:56:52;2.95;;;1.50;;
84135;SDS011;74238;50.566;7.262;2023-11-21T02:59:17;2.67;;;1.48;;
84135;SDS011;74238;50.566;7.262;2023-11-21T03:01:43;4.88;;;2.00;;
84135;SDS011;74238;50.566;7.262;2023-11-21T03:04:08;4.28;;;1.63;;
84135;SDS011;74238;50.566;7.262;2023-11-21T03:06:33;2.92;;;1.70;;
84135;SDS011;74238;50.566;7.262;2023-11-21T03:08:59;4.28;;;1.50;;
84135;SDS011;74238;50.566;7.262;2023-11-21T03:11:24;4.70;;;1.63;;
84135;SDS011;74238;50.566;7.262;2023-11-21T03:13:50;5.15;;;1.80;;
84135;SDS011;74238;50.566;7.262;2023-11-21T03:16:15;5.53;;;1.73;;
84135;SDS011;74238;50.566;7.262;2023-11-21T03:18:41;3.38;;;1.52;;
84135;SDS011;74238;50.566;7.262;2023-11-21T03:21:06;3.88;;;1.65;;
84135;SDS011;74238;50.566;7.262;2023-11-21T03:23:35;3.88;;;1.90;;
84135;SDS011;74238;50.566;7.262;2023-11-21T03:26:01;4.07;;;1.70;;
84135;SDS011;74238;50.566;7.262;2023-11-21T03:28:27;2.30;;;1.20;;
84135;SDS011;74238;50.566;7.262;2023-11-21T03:30:53;3.42;;;1.60;;
84135;SDS011;74238;50.566;7.262;2023-11-21T03:33:19;3.15;;;1.92;;
84135;SDS011;74238;50.566;7.262;2023-11-21T03:35:44;3.47;;;1.95;;
84135;SDS011;74238;50.566;7.262;2023-11-21T03:38:10;4.18;;;1.40;;
84135;SDS011;74238;50.566;7.262;2023-11-21T03:40:35;2.45;;;1.20;;
84135;SDS011;74238;50.566;7.262;2023-11-21T03:43:01;4.30;;;1.80;;
84135;SDS011;74238;50.566;7.262;2023-11-21T03:45:26;3.78;;;1.20;;
84135;SDS011;74238;50.566;7.262;2023-11-21T03:47:51;2.35;;;1.23;;
84135;SDS011;74238;50.566;7.262;2023-11-21T03:50:17;3.13;;;1.60;;
84135;SDS011;74238;50.566;7.262;2023-11-21T03:52:42;2.67;;;1.55;;
84135;SDS011;74238;50.566;7.262;2023-11-21T03:55:08;3.22;;;1.40;;
84135;SDS011;74238;50.566;7.262;2023-11-21T03:57:36;3.88;;;1.30;;
84135;SDS011;74238;50.566;7.262;2023-11-21T04:00:02;3.00;;;1.42;;
84135;SDS011;74238;50.566;7.262;2023-11-21T04:02:29;3.00;;;1.20;;
84135;SDS011;74238;50.566;7.262;2023-11-21T04:04:56;3.10;;;1.20;;
84135;SDS011;74238;50.566;7.262;2023-11-21T04:07:22;3.08;;;1.40;;
84135;SDS011;74238;50.566;7.262;2023-11-21T04:09:47;2.97;;;1.63;;
84135;SDS011;74238;50.566;7.262;2023-11-21T04:12:12;2.85;;;1.33;;
84135;SDS011;74238;50.566;7.262;2023-11-21T04:14:37;3.30;;;1.70;;
84135;SDS011;74238;50.566;7.262;2023-11-21T04:17:03;2.97;;;1.23;;
84135;SDS011;74238;50.566;7.262;2023-11-21T04:19:29;2.97;;;1.42;;
84135;SDS011;74238;50.566;7.262;2023-11-21T04:21:54;3.55;;;1.40;;
84135;SDS011;74238;50.566;7.262;2023-11-21T04:24:19;2.90;;;1.50;;
84135;SDS011;74238;50.566;7.262;2023-11-21T04:26:45;3.40;;;1.35;;
84135;SDS011;74238;50.566;7.262;2023-11-21T04:29:11;3.17;;;1.67;;
84135;SDS011;74238;50.566;7.262;2023-11-21T04:31:37;2.28;;;1.30;;
84135;SDS011;74238;50.566;7.262;2023-11-21T04:34:02;2.00;;;1.30;;
84135;SDS011;74238;50.566;7.262;2023-11-21T04:36:29;2.88;;;1.40;;
84135;SDS011;74238;50.566;7.262;2023-11-21T04:38:55;2.85;;;1.30;;
84135;SDS011;74238;50.566;7.262;2023-11-21T04:41:21;4.50;;;1.52;;
84135;SDS011;74238;50.566;7.262;2023-11-21T04:43:46;2.92;;;1.80;;
84135;SDS011;74238;50.566;7.262;2023-11-21T04:46:12;3.08;;;1.35;;
84135;SDS011;74238;50.566;7.262;2023-11-21T04:48:37;5.45;;;1.65;;
84135;SDS011;74238;50.566;7.262;2023-11-21T04:51:03;3.35;;;1.67;;
84135;SDS011;74238;50.566;7.262;2023-11-21T04:53:29;4.20;;;1.60;;
84135;SDS011;74238;50.566;7.262;2023-11-21T04:55:54;3.33;;;1.50;;
84135;SDS011;74238;50.566;7.262;2023-11-21T04:58:20;4.22;;;1.70;;
84135;SDS011;74238;50.566;7.262;2023-11-21T05:00:45;2.60;;;1.38;;
84135;SDS011;74238;50.566;7.262;2023-11-21T05:03:11;3.47;;;1.75;;
84135;SDS011;74238;50.566;7.262;2023-11-21T05:05:37;2.33;;;1.20;;
84135;SDS011;74238;50.566;7.262;2023-11-21T05:08:02;2.63;;;1.40;;
84135;SDS011;74238;50.566;7.262;2023-11-21T05:10:28;2.88;;;1.40;;
84135;SDS011;74238;50.566;7.262;2023-11-21T05:12:54;3.13;;;1.75;;
84135;SDS011;74238;50.566;7.262;2023-11-21T05:15:20;2.42;;;1.42;;
84135;SDS011;74238;50.566;7.262;2023-11-21T05:17:46;2.88;;;1.45;;
84135;SDS011;74238;50.566;7.262;2023-11-21T05:20:14;2.88;;;1.33;;
84135;SDS011;74238;50.566;7.262;2023-11-21T05:22:45;2.85;;;1.40;;
84135;SDS011;74238;50.566;7.262;2023-11-21T05:25:11;2.60;;;1.30;;
84135;SDS011;74238;50.566;7.262;2023-11-21T05:27:37;1.98;;;1.27;;
84135;SDS011;74238;50.566;7.262;2023-11-21T05:30:02;2.40;;;1.55;;
84135;SDS011;74238;50.566;7.262;2023-11-21T05:32:34;3.13;;;1.42;;
84135;SDS011;74238;50.566;7.262;2023-11-21T05:34:59;4.05;;;1.45;;
84135;SDS011;74238;50.566;7.262;2023-11-21T05:37:25;5.90;;;1.55;;
84135;SDS011;74238;50.566;7.262;2023-11-21T05:39:52;3.22;;;1.50;;
84135;SDS011;74238;50.566;7.262;2023-11-21T05:42:18;2.97;;;1.52;;
84135;SDS011;74238;50.566;7.262;2023-11-21T05:44:43;3.97;;;1.60;;
84135;SDS011;74238;50.566;7.262;2023-11-21T05:47:08;3.22;;;1.50;;
84135;SDS011;74238;50.566;7.262;2023-11-21T05:49:34;2.80;;;1.30;;
84135;SDS011;74238;50.566;7.262;2023-11-21T05:52:00;3.42;;;1.42;;
84135;SDS011;74238;50.566;7.262;2023-11-21T05:54:25;3.28;;;1.50;;
84135;SDS011;74238;50.566;7.262;2023-11-21T05:56:51;3.28;;;1.38;;
84135;SDS011;74238;50.566;7.262;2023-11-21T05:59:16;2.63;;;1.35;;
84135;SDS011;74238;50.566;7.262;2023-11-21T06:01:41;2.00;;;1.35;;
84135;SDS011;74238;50.566;7.262;2023-11-21T06:04:07;3.25;;;1.58;;
84135;SDS011;74238;50.566;7.262;2023-11-21T06:06:35;3.35;;;1.92;;
84135;SDS011;74238;50.566;7.262;2023-11-21T06:09:01;3.42;;;1.23;;
84135;SDS011;74238;50.566;7.262;2023-11-21T06:11:27;3.90;;;1.65;;
84135;SDS011;74238;50.566;7.262;2023-11-21T06:13:52;2.10;;;1.40;;
84135;SDS011;74238;50.566;7.262;2023-11-21T06:16:18;4.53;;;1.35;;
84135;SDS011;74238;50.566;7.262;2023-11-21T06:18:45;2.17;;;1.25;;
84135;SDS011;74238;50.566;7.262;2023-11-21T06:21:11;2.60;;;1.52;;
84135;SDS011;74238;50.566;7.262;2023-11-21T06:23:36;2.65;;;1.40;;
84135;SDS011;74238;50.566;7.262;2023-11-21T06:26:02;3.33;;;2.38;;
84135;SDS011;74238;50.566;7.262;2023-11-21T06:28:29;2.42;;;1.30;;
84135;SDS011;74238;50.566;7.262;2023-11-21T06:30:54;3.45;;;1.35;;
84135;SDS011;74238;50.566;7.262;2023-11-21T06:33:20;2.95;;;1.95;;
84135;SDS011;74238;50.566;7.262;2023-11-21T06:35:46;2.22;;;1.33;;
84135;SDS011;74238;50.566;7.262;2023-11-21T06:38:12;2.25;;;1.30;;
84135;SDS011;74238;50.566;7.262;2023-11-21T06:40:37;2.58;;;1.60;;
84135;SDS011;74238;50.566;7.262;2023-11-21T06:43:03;4.00;;;1.38;;
84135;SDS011;74238;50.566;7.262;2023-11-21T06:45:30;3.33;;;1.42;;
84135;SDS011;74238;50.566;7.262;2023-11-21T06:47:55;2.30;;;1.30;;
84135;SDS011;74238;50.566;7.262;2023-11-21T06:50:20;3.03;;;1.30;;
84135;SDS011;74238;50.566;7.262;2023-11-21T06:52:46;2.65;;;1.63;;
84135;SDS011;74238;50.566;7.262;2023-11-21T06:55:11;2.40;;;1.38;;
84135;SDS011;74238;50.566;7.262;2023-11-21T06:57:36;2.40;;;1.50;;
84135;SDS011;74238;50.566;7.262;2023-11-21T07:00:03;1.83;;;1.20;;
84135;SDS011;74238;50.566;7.262;2023-11-21T07:02:33;2.53;;;1.38;;
84135;SDS011;74238;50.566;7.262;2023-11-21T07:04:59;3.35;;;1.60;;
84135;SDS011;74238;50.566;7.262;2023-11-21T07:07:25;2.97;;;1.42;;
84135;SDS011;74238;50.566;7.262;2023-11-21T07:09:50;2.88;;;1.75;;
84135;SDS011;74238;50.566;7.262;2023-11-21T07:12:16;3.38;;;1.70;;
84135;SDS011;74238;50.566;7.262;2023-11-21T07:14:42;2.85;;;1.50;;
84135;SDS011;74238;50.566;7.262;2023-11-21T07:17:09;2.13;;;1.55;;
84135;SDS011;74238;50.566;7.262;2023-11-21T07:19:38;2.60;;;1.50;;
84135;SDS011;74238;50.566;7.262;2023-11-21T07:22:03;2.08;;;1.42;;
84135;SDS011;74238;50.566;7.262;2023-11-21T07:24:30;2.60;;;1.58;;
84135;SDS011;74238;50.566;7.262;2023-11-21T07:26:56;3.83;;;1.42;;
84135;SDS011;74238;50.566;7.262;2023-11-21T07:29:23;3.63;;;1.63;;
84135;SDS011;74238;50.566;7.262;2023-11-21T07:31:50;3.75;;;1.48;;
84135;SDS011;74238;50.566;7.262;2023-11-21T07:34:16;3.45;;;1.55;;
84135;SDS011;74238;50.566;7.262;2023-11-21T07:36:41;3.65;;;1.80;;
84135;SDS011;74238;50.566;7.262;2023-11-21T07:39:06;3.22;;;1.58;;
84135;SDS011;74238;50.566;7.262;2023-11-21T07:41:32;1.90;;;1.15;;
84135;SDS011;74238;50.566;7.262;2023-11-21T07:43:57;1.92;;;1.40;;
84135;SDS011;74238;50.566;7.262;2023-11-21T07:46:23;3.88;;;1.25;;
84135;SDS011;74238;50.566;7.262;2023-11-21T07:48:49;3.45;;;1.85;;
84135;SDS011;74238;50.566;7.262;2023-11-21T07:51:14;2.72;;;1.35;;
84135;SDS011;74238;50.566;7.262;2023-11-21T07:53:39;3.63;;;1.70;;
84135;SDS011;74238;50.566;7.262;2023-11-21T07:56:05;3.05;;;1.60;;
84135;SDS011;74238;50.566;7.262;2023-11-21T07:58:35;2.33;;;1.55;;
84135;SDS011;74238;50.566;7.262;2023-11-21T08:01:01;2.63;;;1.45;;
84135;SDS011;74238;50.566;7.262;2023-11-21T08:03:27;2.67;;;1.60;;
84135;SDS011;74238;50.566;7.262;2023-11-21T08:05:55;2.40;;;1.40;;
84135;SDS011;74238;50.566;7.262;2023-11-21T08:08:21;2.25;;;1.38;;
84135;SDS011;74238;50.566;7.262;2023-11-21T08:10:46;2.70;;;1.50;;
84135;SDS011;74238;50.566;7.262;2023-11-21T08:13:21;2.97;;;1.77;;
84135;SDS011;74238;50.566;7.262;2023-11-21T08:15:47;2.20;;;1.40;;
84135;SDS011;74238;50.566;7.262;2023-11-21T08:18:12;1.92;;;1.33;;
84135;SDS011;74238;50.566;7.262;2023-11-21T08:20:39;2.92;;;1.63;;
84135;SDS011;74238;50.566;7.262;2023-11-21T08:23:05;4.05;;;1.60;;
84135;SDS011;74238;50.566;7.262;2023-11-21T08:25:31;3.25;;;1.73;;
84135;SDS011;74238;50.566;7.262;2023-11-21T08:27:57;2.90;;;1.58;;
84135;SDS011;74238;50.566;7.262;2023-11-21T08:30:22;3.97;;;1.70;;
84135;SDS011;74238;50.566;7.262;2023-11-21T08:32:49;2.85;;;1.58;;
84135;SDS011;74238;50.566;7.262;2023-11-21T08:35:15;2.80;;;1.75;;
84135;SDS011;74238;50.566;7.262;2023-11-21T08:37:41;2.50;;;1.58;;
84135;SDS011;74238;50.566;7.262;2023-11-21T08:40:06;3.90;;;1.35;;
84135;SDS011;74238;50.566;7.262;2023-11-21T08:42:34;2.50;;;1.50;;
84135;SDS011;74238;50.566;7.262;2023-11-21T08:45:00;3.08;;;1.60;;
84135;SDS011;74238;50.566;7.262;2023-11-21T08:47:25;4.40;;;1.70;;
84135;SDS011;74238;50.566;7.262;2023-11-21T08:49:51;3.03;;;1.60;;
84135;SDS011;74238;50.566;7.262;2023-11-21T08:52:19;3.55;;;1.63;;
84135;SDS011;74238;50.566;7.262;2023-11-21T08:54:48;4.18;;;1.50;;
84135;SDS011;74238;50.566;7.262;2023-11-21T08:57:13;2.75;;;1.48;;
84135;SDS011;74238;50.566;7.262;2023-11-21T08:59:39;3.90;;;1.67;;
84135;SDS011;74238;50.566;7.262;2023-11-21T09:02:04;3.90;;;2.22;;
84135;SDS011;74238;50.566;7.262;2023-11-21T09:04:30;4.05;;;1.60;;
84135;SDS011;74238;50.566;7.262;2023-11-21T09:06:55;5.97;;;2.00;;
84135;SDS011;74238;50.566;7.262;2023-11-21T09:09:20;4.80;;;2.15;;
84135;SDS011;74238;50.566;7.262;2023-11-21T09:11:46;7.03;;;2.40;;
84135;SDS011;74238;50.566;7.262;2023-11-21T09:14:14;4.03;;;1.88;;
84135;SDS011;74238;50.566;7.262;2023-11-21T09:16:41;3.83;;;1.92;;
84135;SDS011;74238;50.566;7.262;2023-11-21T09:19:06;5.18;;;2.20;;
84135;SDS011;74238;50.566;7.262;2023-11-21T09:21:31;4.75;;;2.30;;
84135;SDS011;74238;50.566;7.262;2023-11-21T09:23:57;5.25;;;2.00;;
84135;SDS011;74238;50.566;7.262;2023-11-21T09:26:23;4.00;;;2.20;;
84135;SDS011;74238;50.566;7.262;2023-11-21T09:28:48;5.38;;;1.70;;
84135;SDS011;74238;50.566;7.262;2023-11-21T09:31:16;2.95;;;1.52;;
84135;SDS011;74238;50.566;7.262;2023-11-21T09:33:42;6.15;;;2.13;;
84135;SDS011;74238;50.566;7.262;2023-11-21T09:36:12;3.65;;;2.45;;
84135;SDS011;74238;50.566;7.262;2023-11-21T09:38:41;5.25;;;2.13;;
84135;SDS011;74238;50.566;7.262;2023-11-21T09:41:08;5.18;;;2.35;;
84135;SDS011;74238;50.566;7.262;2023-11-21T09:43:42;3.60;;;2.05;;
84135;SDS011;74238;50.566;7.262;2023-11-21T09:46:11;5.45;;;2.00;;
84135;SDS011;74238;50.566;7.262;2023-11-21T09:48:41;3.50;;;1.83;;
84135;SDS011;74238;50.566;7.262;2023-11-21T09:51:09;4.93;;;1.92;;
84135;SDS011;74238;50.566;7.262;2023-11-21T09:53:36;4.25;;;2.38;;
84135;SDS011;74238;50.566;7.262;2023-11-21T09:56:03;4.55;;;1.90;;
84135;SDS011;74238;50.566;7.262;2023-11-21T09:58:29;4.97;;;2.13;;
84135;SDS011;74238;50.566;7.262;2023-11-21T10:00:55;6.00;;;2.10;;
84135;SDS011;74238;50.566;7.262;2023-11-21T10:03:22;4.28;;;2.10;;
84135;SDS011;74238;50.566;7.262;2023-11-21T10:05:48;3.17;;;1.92;;
84135;SDS011;74238;50.566;7.262;2023-11-21T10:08:16;6.93;;;2.35;;
84135;SDS011;74238;50.566;7.262;2023-11-21T10:10:45;7.28;;;2.33;;
84135;SDS011;74238;50.566;7.262;2023-11-21T10:13:13;4.18;;;2.17;;
84135;SDS011;74238;50.566;7.262;2023-11-21T10:15:41;5.47;;;2.05;;
84135;SDS011;74238;50.566;7.262;2023-11-21T10:18:12;3.58;;;2.20;;
84135;SDS011;74238;50.566;7.262;2023-11-21T10:20:40;4.38;;;2.22;;
84135;SDS011;74238;50.566;7.262;2023-11-21T10:23:05;4.45;;;1.80;;
84135;SDS011;74238;50.566;7.262;2023-11-21T10:25:32;5.43;;;2.30;;
84135;SDS011;74238;50.566;7.262;2023-11-21T10:27:58;4.53;;;1.92;;
84135;SDS011;74238;50.566;7.262;2023-11-21T10:30:33;4.78;;;1.70;;
84135;SDS011;74238;50.566;7.262;2023-11-21T10:33:02;4.70;;;2.13;;
84135;SDS011;74238;50.566;7.262;2023-11-21T10:35:47;5.70;;;2.20;;
84135;SDS011;74238;50.566;7.262;2023-11-21T10:38:16;4.57;;;1.90;;
84135;SDS011;74238;50.566;7.262;2023-11-21T10:40:42;3.95;;;2.00;;
84135;SDS011;74238;50.566;7.262;2023-11-21T10:43:11;3.28;;;1.80;;
84135;SDS011;74238;50.566;7.262;2023-11-21T10:45:38;6.00;;;2.10;;
84135;SDS011;74238;50.566;7.262;2023-11-21T10:48:07;2.88;;;1.90;;
84135;SDS011;74238;50.566;7.262;2023-11-21T10:50:34;4.57;;;2.38;;
84135;SDS011;74238;50.566;7.262;2023-11-21T10:53:04;4.45;;;1.85;;
84135;SDS011;74238;50.566;7.262;2023-11-21T10:55:30;3.78;;;1.70;;
84135;SDS011;74238;50.566;7.262;2023-11-21T10:58:00;2.70;;;1.85;;
84135;SDS011;74238;50.566;7.262;2023-11-21T11:00:30;2.83;;;1.70;;
84135;SDS011;74238;50.566;7.262;2023-11-21T11:02:56;3.40;;;1.83;;
84135;SDS011;74238;50.566;7.262;2023-11-21T11:05:24;3.67;;;1.95;;
84135;SDS011;74238;50.566;7.262;2023-11-21T11:07:51;4.65;;;1.85;;
84135;SDS011;74238;50.566;7.262;2023-11-21T11:10:25;4.25;;;1.70;;
84135;SDS011;74238;50.566;7.262;2023-11-21T11:12:52;3.28;;;2.00;;
84135;SDS011;74238;50.566;7.262;2023-11-21T11:15:19;4.70;;;1.88;;
84135;SDS011;74238;50.566;7.262;2023-11-21T11:17:45;2.85;;;1.73;;
84135;SDS011;74238;50.566;7.262;2023-11-21T11:20:12;3.58;;;1.75;;
84135;SDS011;74238;50.566;7.262;2023-11-21T11:23:03;3.20;;;1.90;;
84135;SDS011;74238;50.566;7.262;2023-11-21T11:28:20;4.00;;;2.30;;
84135;SDS011;74238;50.566;7.262;2023-11-21T11:30:52;4.82;;;2.55;;
84135;SDS011;74238;50.566;7.262;2023-11-21T11:36:10;6.53;;;2.30;;
84135;SDS011;74238;50.566;7.262;2023-11-21T11:38:47;3.45;;;2.10;;
84135;SDS011;74238;50.566;7.262;2023-11-21T11:41:15;4.45;;;2.10;;
84135;SDS011;74238;50.566;7.262;2023-11-21T11:43:49;6.78;;;2.58;;
84135;SDS011;74238;50.566;7.262;2023-11-21T11:46:15;5.85;;;2.10;;
84135;SDS011;74238;50.566;7.262;2023-11-21T11:48:40;3.38;;;2.30;;
84135;SDS011;74238;50.566;7.262;2023-11-21T11:51:06;3.35;;;1.92;;
84135;SDS011;74238;50.566;7.262;2023-11-21T11:53:40;4.38;;;2.38;;
84135;SDS011;74238;50.566;7.262;2023-11-21T11:58:50;6.13;;;2.22;;
84135;SDS011;74238;50.566;7.262;2023-11-21T12:01:20;3.42;;;2.15;;
84135;SDS011;74238;50.566;7.262;2023-11-21T12:06:42;5.68;;;2.60;;
84135;SDS011;74238;50.566;7.262;2023-11-21T12:09:27;4.38;;;2.30;;
84135;SDS011;74238;50.566;7.262;2023-11-21T12:11:53;5.25;;;2.40;;
84135;SDS011;74238;50.566;7.262;2023-11-21T12:14:21;6.25;;;2.70;;
84135;SDS011;74238;50.566;7.262;2023-11-21T12:16:48;4.65;;;2.53;;
84135;SDS011;74238;50.566;7.262;2023-11-21T12:19:13;4.95;;;2.33;;
84135;SDS011;74238;50.566;7.262;2023-11-21T12:21:39;4.18;;;2.60;;
84135;SDS011;74238;50.566;7.262;2023-11-21T12:24:11;4.97;;;2.40;;
84135;SDS011;74238;50.566;7.262;2023-11-21T12:26:39;5.80;;;2.00;;
84135;SDS011;74238;50.566;7.262;2023-11-21T12:29:04;3.53;;;2.10;;
84135;SDS011;74238;50.566;7.262;2023-11-21T12:31:32;3.92;;;2.28;;
84135;SDS011;74238;50.566;7.262;2023-11-21T12:33:58;3.92;;;2.25;;
84135;SDS011;74238;50.566;7.262;2023-11-21T12:36:23;5.32;;;2.42;;
84135;SDS011;74238;50.566;7.262;2023-11-21T12:38:50;6.38;;;2.35;;
84135;SDS011;74238;50.566;7.262;2023-11-21T12:41:16;4.75;;;1.98;;
84135;SDS011;74238;50.566;7.262;2023-11-21T12:43:42;4.18;;;2.38;;
84135;SDS011;74238;50.566;7.262;2023-11-21T12:46:08;3.60;;;2.10;;
84135;SDS011;74238;50.566;7.262;2023-11-21T12:48:38;3.38;;;2.10;;
84135;SDS011;74238;50.566;7.262;2023-11-21T12:53:33;4.93;;;2.20;;
84135;SDS011;74238;50.566;7.262;2023-11-21T12:56:06;4.03;;;2.30;;
84135;SDS011;74238;50.566;7.262;2023-11-21T12:58:38;2.83;;;2.00;;
84135;SDS011;74238;50.566;7.262;2023-11-21T13:01:04;3.03;;;1.92;;
84135;SDS011;74238;50.566;7.262;2023-11-21T13:03:36;3.05;;;1.92;;
84135;SDS011;74238;50.566;7.262;2023-11-21T13:06:02;4.55;;;2.28;;
84135;SDS011;74238;50.566;7.262;2023-11-21T13:08:30;4.88;;;2.22;;
84135;SDS011;74238;50.566;7.262;2023-11-21T13:10:56;6.82;;;2.53;;
84135;SDS011;74238;50.566;7.262;2023-11-21T13:13:22;3.50;;;2.05;;
84135;SDS011;74238;50.566;7.262;2023-11-21T13:15:49;3.83;;;2.20;;
84135;SDS011;74238;50.566;7.262;2023-11-21T13:18:15;3.80;;;2.22;;
84135;SDS011;74238;50.566;7.262;2023-11-21T13:20:41;3.35;;;2.20;;
84135;SDS011;74238;50.566;7.262;2023-11-21T13:23:11;2.95;;;2.00;;
84135;SDS011;74238;50.566;7.262;2023-11-21T13:25:37;3.72;;;2.08;;
84135;SDS011;74238;50.566;7.262;2023-11-21T13:28:06;4.68;;;2.13;;
84135;SDS011;74238;50.566;7.262;2023-11-21T13:30:32;3.80;;;2.35;;
84135;SDS011;74238;50.566;7.262;2023-11-21T13:33:01;5.28;;;2.10;;
84135;SDS011;74238;50.566;7.262;2023-11-21T13:35:32;2.70;;;2.00;;
84135;SDS011;74238;50.566;7.262;2023-11-21T13:38:11;3.58;;;2.08;;
84135;SDS011;74238;50.566;7.262;2023-11-21T13:40:38;3.15;;;2.05;;
84135;SDS011;74238;50.566;7.262;2023-11-21T13:43:11;2.58;;;2.03;;
84135;SDS011;74238;50.566;7.262;2023-11-21T13:45:39;4.82;;;2.47;;
84135;SDS011;74238;50.566;7.262;2023-11-21T13:48:05;4.95;;;2.30;;
84135;SDS011;74238;50.566;7.262;2023-11-21T13:53:26;4.18;;;2.42;;
84135;SDS011;74238;50.566;7.262;2023-11-21T13:55:53;2.97;;;2.30;;
84135;SDS011;74238;50.566;7.262;2023-11-21T13:58:26;4.32;;;2.67;;
84135;SDS011;74238;50.566;7.262;2023-11-21T14:01:06;3.97;;;2.03;;
84135;SDS011;74238;50.566;7.262;2023-11-21T14:06:09;3.05;;;1.90;;
84135;SDS011;74238;50.566;7.262;2023-11-21T14:08:39;3.15;;;2.10;;
84135;SDS011;74238;50.566;7.262;2023-11-21T14:11:06;2.97;;;1.70;;
84135;SDS011;74238;50.566;7.262;2023-11-21T14:13:32;4.10;;;2.13;;
84135;SDS011;74238;50.566;7.262;2023-11-21T14:15:58;3.53;;;1.98;;
84135;SDS011;74238;50.566;7.262;2023-11-21T14:18:25;3.53;;;2.30;;
84135;SDS011;74238;50.566;7.262;2023-11-21T14:20:56;4.28;;;1.80;;
84135;SDS011;74238;50.566;7.262;2023-11-21T14:23:22;2.88;;;1.85;;
84135;SDS011;74238;50.566;7.262;2023-11-21T14:25:48;2.85;;;1.98;;
84135;SDS011;74238;50.566;7.262;2023-11-21T14:28:15;3.90;;;1.88;;
84135;SDS011;74238;50.566;7.262;2023-11-21T14:30:40;4.60;;;3.05;;
84135;SDS011;74238;50.566;7.262;2023-11-21T14:33:07;3.70;;;2.33;;
84135;SDS011;74238;50.566;7.262;2023-11-21T14:35:33;3.92;;;2.00;;
84135;SDS011;74238;50.566;7.262;2023-11-21T14:37:59;3.63;;;2.47;;
84135;SDS011;74238;50.566;7.262;2023-11-21T14:40:25;4.40;;;2.10;;
84135;SDS011;74238;50.566;7.262;2023-11-21T14:42:54;4.25;;;2.50;;
84135;SDS011;74238;50.566;7.262;2023-11-21T14:45:22;4.88;;;2.55;;
84135;SDS011;74238;50.566;7.262;2023-11-21T14:47:51;4.43;;;2.60;;
84135;SDS011;74238;50.566;7.262;2023-11-21T14:50:33;5.45;;;2.70;;
84135;SDS011;74238;50.566;7.262;2023-11-21T14:53:09;3.85;;;2.50;;
84135;SDS011;74238;50.566;7.262;2023-11-21T14:55:37;3.40;;;2.30;;
84135;SDS011;74238;50.566;7.262;2023-11-21T14:58:14;3.97;;;2.45;;
84135;SDS011;74238;50.566;7.262;2023-11-21T15:00:45;3.65;;;2.40;;
84135;SDS011;74238;50.566;7.262;2023-11-21T15:03:11;5.47;;;2.83;;
84135;SDS011;74238;50.566;7.262;2023-11-21T15:06:04;6.28;;;2.95;;